createdAt,value
2019-02-27T00:02:29.585Z,4.90
2019-02-27T00:05:34.016Z,4.80
2019-02-27T00:08:38.694Z,4.80
2019-02-27T00:11:45.945Z,4.70
2019-02-27T00:14:49.593Z,4.70
2019-02-27T00:17:54.022Z,4.70
2019-02-27T00:20:58.463Z,4.60
2019-02-27T00:24:02.899Z,4.50
2019-02-27T00:27:07.333Z,4.50
2019-02-27T00:30:13.038Z,4.50
2019-02-27T00:33:17.512Z,4.50
2019-02-27T00:36:22.192Z,4.50
2019-02-27T00:39:30.834Z,4.50
2019-02-27T00:42:33.916Z,4.50
2019-02-27T00:45:40.119Z,4.40
2019-02-27T00:48:44.659Z,4.40
2019-02-27T00:51:49.101Z,4.40
2019-02-27T00:54:53.861Z,4.30
2019-02-27T00:57:58.301Z,4.30
2019-02-27T01:01:04.370Z,4.30
2019-02-27T01:04:09.072Z,4.20
2019-02-27T01:07:13.684Z,4.20
2019-02-27T01:10:18.432Z,4.10
2019-02-27T01:13:22.866Z,4.10
2019-02-27T01:16:27.312Z,4.20
2019-02-27T01:19:31.740Z,4.20
2019-02-27T01:22:36.179Z,4.10
2019-02-27T01:25:40.673Z,4.20
2019-02-27T01:28:45.621Z,4.10
2019-02-27T01:31:50.622Z,4.10
2019-02-27T01:34:55.059Z,4.00
2019-02-27T01:37:59.502Z,4.00
2019-02-27T01:41:04.202Z,4.00
2019-02-27T01:44:11.083Z,3.90
2019-02-27T01:47:15.093Z,3.90
2019-02-27T01:50:32.734Z,4.00
2019-02-27T01:53:37.918Z,4.10
2019-02-27T01:56:43.612Z,4.10
2019-02-27T01:59:50.439Z,4.10
2019-02-27T02:02:54.632Z,4.20
2019-02-27T02:05:59.769Z,4.10
2019-02-27T02:09:32.590Z,4.00
2019-02-27T02:12:39.050Z,3.90
2019-02-27T02:16:11.677Z,3.90
2019-02-27T02:20:00.372Z,3.80
2019-02-27T02:23:21.046Z,3.70
2019-02-27T02:26:45.034Z,3.70
2019-02-27T02:30:29.363Z,3.70
2019-02-27T02:33:39.703Z,3.90
2019-02-27T02:37:02.532Z,3.80
2019-02-27T02:40:32.065Z,3.70
2019-02-27T02:44:21.071Z,3.70
2019-02-27T02:47:34.985Z,3.50
2019-02-27T02:51:22.024Z,3.60
2019-02-27T02:55:12.707Z,3.50
2019-02-27T02:58:47.290Z,3.50
2019-02-27T03:02:02.091Z,3.50
2019-02-27T03:05:58.592Z,3.50
2019-02-27T03:09:32.574Z,3.70
2019-02-27T03:13:10.764Z,3.60
2019-02-27T03:16:31.788Z,3.60
2019-02-27T03:19:52.381Z,3.60
2019-02-27T03:23:25.159Z,3.50
2019-02-27T03:26:56.830Z,3.50
2019-02-27T03:30:36.144Z,3.40
2019-02-27T03:34:09.256Z,3.50
2019-02-27T03:37:30.167Z,3.50
2019-02-27T03:40:51.588Z,3.40
2019-02-27T03:44:27.410Z,3.30
2019-02-27T03:47:52.775Z,3.30
2019-02-27T03:51:39.599Z,3.30
2019-02-27T03:54:57.973Z,3.20
2019-02-27T03:58:08.517Z,3.20
2019-02-27T04:01:30.587Z,3.20
2019-02-27T04:04:52.600Z,3.30
2019-02-27T04:08:22.077Z,3.20
2019-02-27T04:11:27.037Z,3.10
2019-02-27T04:14:40.424Z,3.10
2019-02-27T04:17:40.673Z,3.00
2019-02-27T04:20:49.827Z,3.00
2019-02-27T04:23:52.014Z,2.90
2019-02-27T04:26:56.440Z,2.90
2019-02-27T04:30:00.880Z,2.90
2019-02-27T04:33:05.316Z,2.80
2019-02-27T04:36:12.336Z,2.80
2019-02-27T04:39:15.911Z,2.80
2019-02-27T04:42:22.954Z,2.80
2019-02-27T04:45:26.507Z,2.80
2019-02-27T04:48:31.270Z,2.80
2019-02-27T04:51:35.712Z,2.70
2019-02-27T04:54:41.548Z,2.70
2019-02-27T04:57:46.591Z,2.80
2019-02-27T05:00:51.032Z,2.90
2019-02-27T05:03:55.465Z,2.90
2019-02-27T05:06:59.961Z,2.80
2019-02-27T05:10:07.959Z,2.70
2019-02-27T05:13:12.417Z,2.60
2019-02-27T05:16:17.126Z,2.60
2019-02-27T05:19:21.552Z,2.50
2019-02-27T05:22:26.765Z,2.50
2019-02-27T05:25:31.708Z,2.50
2019-02-27T05:28:36.134Z,2.50
2019-02-27T05:31:40.882Z,2.50
2019-02-27T05:34:49.356Z,2.50
2019-02-27T05:37:51.778Z,2.50
2019-02-27T05:40:59.879Z,2.40
2019-02-27T05:44:02.670Z,2.40
2019-02-27T05:47:08.643Z,2.40
2019-02-27T05:50:13.800Z,2.40
2019-02-27T05:53:22.149Z,2.40
2019-02-27T05:56:24.405Z,2.40
2019-02-27T05:59:29.438Z,2.40
2019-02-27T06:02:34.358Z,2.40
2019-02-27T06:05:38.791Z,2.40
2019-02-27T06:08:43.222Z,2.30
2019-02-27T06:11:47.661Z,2.40
2019-02-27T06:14:54.806Z,2.30
2019-02-27T06:17:58.591Z,2.40
2019-02-27T06:21:03.335Z,2.50
2019-02-27T06:24:11.590Z,2.70
2019-02-27T06:27:13.937Z,3.10
2019-02-27T06:30:22.332Z,3.80
2019-02-27T06:33:27.074Z,4.30
2019-02-27T06:36:31.802Z,4.60
2019-02-27T06:39:36.238Z,4.70
2019-02-27T06:42:41.033Z,5.00
2019-02-27T06:45:46.554Z,5.70
2019-02-27T06:48:51.543Z,6.70
2019-02-27T06:51:55.990Z,8.10
2019-02-27T06:55:00.698Z,8.90
2019-02-27T06:58:05.463Z,9.20
2019-02-27T07:01:13.086Z,9.30
2019-02-27T07:04:16.637Z,9.40
2019-02-27T07:07:21.076Z,9.60
2019-02-27T07:10:25.505Z,9.00
2019-02-27T07:13:30.076Z,8.20
2019-02-27T07:16:34.743Z,7.50
2019-02-27T07:19:39.180Z,6.90
2019-02-27T07:22:46.475Z,6.40
2019-02-27T07:25:50.575Z,6.10
2019-02-27T07:28:55.017Z,6.00
2019-02-27T07:31:59.448Z,6.00
2019-02-27T07:35:04.828Z,5.90
2019-02-27T07:38:09.315Z,5.80
2019-02-27T07:41:17.482Z,5.80
2019-02-27T07:44:19.916Z,5.90
2019-02-27T07:47:24.705Z,6.00
2019-02-27T07:50:29.141Z,6.10
2019-02-27T07:53:33.580Z,6.20
2019-02-27T07:56:38.016Z,6.30
2019-02-27T07:59:42.721Z,6.40
2019-02-27T08:02:47.174Z,6.50
2019-02-27T08:05:51.692Z,6.70
2019-02-27T08:08:57.177Z,6.80
2019-02-27T08:12:02.306Z,7.00
2019-02-27T08:15:13.516Z,7.00
2019-02-27T08:18:23.027Z,7.20
2019-02-27T08:21:23.894Z,7.30
2019-02-27T08:24:28.336Z,7.30
2019-02-27T08:27:33.066Z,7.30
2019-02-27T08:30:37.510Z,7.20
2019-02-27T08:33:41.951Z,7.20
2019-02-27T08:36:46.388Z,7.30
2019-02-27T08:39:51.178Z,7.30
2019-02-27T08:42:55.613Z,7.40
2019-02-27T08:46:02.403Z,7.50
2019-02-27T08:49:06.487Z,7.60
2019-02-27T08:52:13.128Z,7.70
2019-02-27T08:55:22.304Z,7.80
2019-02-27T08:58:28.960Z,7.90
2019-02-27T09:01:31.784Z,8.00
2019-02-27T09:04:36.497Z,8.10
2019-02-27T09:07:43.010Z,8.30
2019-02-27T09:10:47.087Z,8.40
2019-02-27T09:13:51.525Z,8.60
2019-02-27T09:16:56.253Z,8.70
2019-02-27T09:20:00.967Z,8.90
2019-02-27T09:23:05.695Z,9.10
2019-02-27T09:26:10.137Z,9.20
2019-02-27T09:29:18.152Z,9.40
2019-02-27T09:32:21.326Z,9.50
2019-02-27T09:35:25.779Z,9.80
2019-02-27T09:38:30.216Z,9.90
2019-02-27T09:41:34.732Z,10.20
2019-02-27T09:44:39.186Z,10.60
2019-02-27T09:47:43.624Z,11.20
2019-02-27T09:50:49.183Z,11.70
2019-02-27T09:53:53.709Z,12.30
2019-02-27T09:57:02.065Z,12.70
2019-02-27T10:00:08.850Z,13.10
2019-02-27T10:03:13.552Z,13.50
2019-02-27T10:06:18.281Z,13.80
2019-02-27T10:09:22.734Z,14.10
2019-02-27T10:12:27.825Z,14.40
2019-02-27T10:15:34.323Z,14.70
2019-02-27T10:18:38.734Z,15.00
2019-02-27T10:21:44.643Z,15.10
2019-02-27T10:24:49.795Z,15.30
2019-02-27T10:27:54.566Z,15.40
2019-02-27T10:30:59.295Z,15.60
2019-02-27T10:34:03.749Z,15.80
2019-02-27T10:37:12.904Z,16.10
2019-02-27T10:40:20.617Z,16.20
2019-02-27T10:43:25.387Z,16.50
2019-02-27T10:46:29.893Z,17.10
2019-02-27T10:49:34.646Z,17.60
2019-02-27T10:52:39.103Z,17.60
2019-02-27T10:55:46.458Z,17.80
2019-02-27T10:58:50.064Z,17.90
2019-02-27T11:01:54.583Z,18.00
2019-02-27T11:04:59.038Z,17.70
2019-02-27T11:08:03.646Z,17.90
2019-02-27T11:11:08.820Z,17.90
2019-02-27T11:14:13.716Z,18.10
2019-02-27T11:17:18.167Z,18.40
2019-02-27T11:20:24.614Z,18.40
2019-02-27T11:23:28.793Z,18.90
2019-02-27T11:26:33.937Z,19.40
2019-02-27T11:29:38.491Z,19.80
2019-02-27T11:32:43.231Z,19.70
2019-02-27T11:35:47.682Z,19.70
2019-02-27T11:38:52.392Z,19.60
2019-02-27T11:41:56.830Z,19.70
2019-02-27T11:45:01.278Z,20.00
2019-02-27T11:48:06.064Z,20.30
2019-02-27T11:51:10.576Z,20.40
2019-02-27T11:54:15.013Z,20.70
2019-02-27T11:57:19.457Z,20.90
2019-02-27T12:00:26.941Z,20.80
2019-02-27T12:03:31.384Z,20.70
2019-02-27T12:06:36.099Z,21.00
2019-02-27T12:09:40.527Z,21.20
2019-02-27T12:12:44.977Z,21.50
2019-02-27T12:15:49.496Z,21.00
2019-02-27T12:18:53.944Z,21.20
2019-02-27T12:22:00.302Z,21.40
2019-02-27T12:25:07.345Z,21.40
2019-02-27T12:28:12.071Z,21.40
2019-02-27T12:31:16.568Z,21.40
2019-02-27T12:34:20.959Z,21.40
2019-02-27T12:37:28.338Z,21.50
2019-02-27T12:40:32.221Z,21.60
2019-02-27T12:43:36.948Z,21.70
2019-02-27T12:46:41.401Z,21.70
2019-02-27T12:49:45.835Z,22.00
2019-02-27T12:52:50.363Z,22.20
2019-02-27T12:55:54.796Z,22.20
2019-02-27T12:58:59.327Z,22.50
2019-02-27T13:02:08.399Z,22.70
2019-02-27T13:05:14.446Z,22.70
2019-02-27T13:08:19.542Z,22.60
2019-02-27T13:11:24.026Z,22.50
2019-02-27T13:14:33.039Z,22.50
2019-02-27T13:17:34.664Z,22.80
2019-02-27T13:20:39.103Z,22.70
2019-02-27T13:23:43.544Z,22.80
2019-02-27T13:26:47.987Z,22.90
2019-02-27T13:29:55.464Z,23.10
2019-02-27T13:33:01.196Z,23.30
2019-02-27T13:36:05.666Z,23.40
2019-02-27T13:39:10.181Z,23.50
2019-02-27T13:42:18.427Z,24.20
2019-02-27T13:45:28.837Z,25.10
2019-02-27T13:48:33.280Z,26.00
2019-02-27T13:51:40.248Z,26.90
2019-02-27T13:54:43.875Z,26.60
2019-02-27T13:57:48.318Z,26.20
2019-02-27T14:00:53.557Z,26.60
2019-02-27T14:03:59.302Z,26.90
2019-02-27T14:07:03.732Z,26.80
2019-02-27T14:10:17.128Z,26.30
2019-02-27T14:13:21.676Z,26.10
2019-02-27T14:16:26.110Z,25.80
2019-02-27T14:19:30.850Z,25.50
2019-02-27T14:22:40.362Z,25.30
2019-02-27T14:25:41.735Z,25.70
2019-02-27T14:28:46.180Z,25.90
2019-02-27T14:31:50.886Z,26.00
2019-02-27T14:34:55.339Z,25.40
2019-02-27T14:38:00.044Z,24.70
2019-02-27T14:41:04.476Z,24.80
2019-02-27T14:44:09.205Z,25.00
2019-02-27T14:47:16.399Z,25.10
2019-02-27T14:50:22.704Z,24.30
2019-02-27T14:53:27.296Z,23.40
2019-02-27T14:56:31.726Z,22.70
2019-02-27T14:59:36.196Z,22.10
2019-02-27T15:02:40.620Z,21.70
2019-02-27T15:05:45.438Z,21.50
2019-02-27T15:08:57.710Z,21.20
2019-02-27T15:11:56.281Z,20.90
2019-02-27T15:15:01.024Z,20.50
2019-02-27T15:18:06.082Z,20.20
2019-02-27T15:21:13.042Z,20.00
2019-02-27T15:24:17.253Z,19.90
2019-02-27T15:27:22.419Z,19.70
2019-02-27T15:30:32.532Z,19.50
2019-02-27T15:33:39.067Z,19.30
2019-02-27T15:36:43.281Z,19.10
2019-02-27T15:39:47.974Z,19.00
2019-02-27T15:42:52.410Z,18.80
2019-02-27T15:45:57.131Z,18.80
2019-02-27T15:49:01.575Z,18.70
2019-02-27T15:52:06.910Z,18.60
2019-02-27T15:55:14.657Z,18.40
2019-02-27T15:58:19.105Z,18.30
2019-02-27T16:01:24.751Z,18.20
2019-02-27T16:04:29.744Z,18.10
2019-02-27T16:07:34.449Z,18.00
2019-02-27T16:10:42.662Z,17.90
2019-02-27T16:13:45.057Z,17.70
2019-02-27T16:16:49.500Z,17.50
2019-02-27T16:19:54.159Z,17.30
2019-02-27T16:22:58.925Z,17.10
2019-02-27T16:26:03.368Z,16.90
2019-02-27T16:29:07.809Z,16.70
2019-02-27T16:32:13.419Z,16.50
2019-02-27T16:35:18.545Z,16.20
2019-02-27T16:38:22.949Z,16.00
2019-02-27T16:41:28.962Z,15.80
2019-02-27T16:44:33.732Z,15.50
2019-02-27T16:47:38.497Z,15.30
2019-02-27T16:50:42.942Z,15.00
2019-02-27T16:53:52.362Z,14.80
2019-02-27T16:56:53.546Z,14.60
2019-02-27T16:59:57.991Z,14.50
2019-02-27T17:03:02.768Z,14.20
2019-02-27T17:06:07.217Z,14.10
2019-02-27T17:09:13.296Z,13.90
2019-02-27T17:12:17.993Z,13.80
2019-02-27T17:15:22.448Z,13.60
2019-02-27T17:18:28.326Z,13.50
2019-02-27T17:21:33.052Z,13.30
2019-02-27T17:24:37.836Z,13.20
2019-02-27T17:27:42.341Z,13.10
2019-02-27T17:30:46.790Z,13.00
2019-02-27T17:33:51.233Z,12.80
2019-02-27T17:36:55.933Z,12.60
2019-02-27T17:40:02.232Z,12.40
2019-02-27T17:43:07.162Z,12.40
2019-02-27T17:46:11.599Z,12.20
2019-02-27T17:49:16.045Z,12.20
2019-02-27T17:52:20.487Z,12.20
2019-02-27T17:55:25.236Z,12.10
2019-02-27T17:58:33.624Z,12.00
2019-02-27T18:01:35.867Z,11.90
2019-02-27T18:04:40.301Z,11.70
2019-02-27T18:07:44.755Z,11.60
2019-02-27T18:10:49.513Z,11.40
2019-02-27T18:13:54.448Z,11.30
2019-02-27T18:16:59.422Z,11.20
2019-02-27T18:20:07.394Z,11.00
2019-02-27T18:23:11.841Z,10.80
2019-02-27T18:26:16.473Z,10.70
2019-02-27T18:29:21.005Z,10.50
2019-02-27T18:32:25.795Z,10.50
2019-02-27T18:35:30.239Z,10.40
2019-02-27T18:38:34.679Z,10.30
2019-02-27T18:41:39.761Z,10.20
2019-02-27T18:44:44.353Z,10.10
2019-02-27T18:47:48.803Z,10.00
2019-02-27T18:50:55.965Z,9.90
2019-02-27T18:54:02.263Z,9.80
2019-02-27T18:57:06.403Z,9.70
2019-02-27T19:00:18.761Z,9.60
2019-02-27T19:03:25.944Z,9.50
2019-02-27T19:06:29.685Z,9.40
2019-02-27T19:09:34.115Z,9.40
2019-02-27T19:12:38.550Z,9.20
2019-02-27T19:15:46.311Z,9.20
2019-02-27T19:18:49.231Z,9.10
2019-02-27T19:21:54.000Z,9.10
2019-02-27T19:25:00.153Z,9.00
2019-02-27T19:28:04.903Z,8.90
2019-02-27T19:31:09.329Z,8.80
2019-02-27T19:34:13.773Z,8.70
2019-02-27T19:37:18.286Z,8.60
2019-02-27T19:40:23.751Z,8.60
2019-02-27T19:43:28.137Z,8.60
2019-02-27T19:46:32.561Z,8.40
2019-02-27T19:49:37.349Z,8.30
2019-02-27T19:52:41.791Z,8.30
2019-02-27T19:55:46.208Z,8.20
2019-02-27T19:58:52.196Z,8.20
2019-02-27T20:01:56.859Z,8.10
2019-02-27T20:05:01.661Z,8.00
2019-02-27T20:08:09.841Z,8.00
2019-02-27T20:11:13.141Z,7.90
2019-02-27T20:14:17.988Z,7.90
2019-02-27T20:17:22.422Z,7.90
2019-02-27T20:20:27.345Z,7.90
2019-02-27T20:23:31.789Z,7.70
2019-02-27T20:26:44.246Z,7.50
2019-02-27T20:29:42.385Z,7.50
2019-02-27T20:32:48.171Z,7.40
2019-02-27T20:35:55.789Z,7.30
2019-02-27T20:38:58.844Z,7.30
2019-02-27T20:42:03.541Z,7.50
2019-02-27T20:45:14.756Z,7.50
2019-02-27T20:48:19.652Z,7.40
2019-02-27T20:51:24.383Z,7.40
2019-02-27T20:54:28.822Z,7.40
2019-02-27T20:57:33.569Z,7.40
2019-02-27T21:00:38.370Z,7.30
2019-02-27T21:03:42.795Z,7.30
2019-02-27T21:06:48.490Z,7.20
2019-02-27T21:09:55.439Z,7.20
2019-02-27T21:16:40.183Z,7.20
2019-02-27T21:19:45.984Z,7.30
2019-02-27T21:22:51.060Z,7.40
2019-02-27T21:25:55.503Z,7.40
2019-02-27T21:29:00.250Z,7.30
2019-02-27T21:32:04.985Z,7.20
2019-02-27T21:35:11.047Z,7.30
2019-02-27T21:38:16.601Z,7.20
2019-02-27T21:41:21.532Z,7.20
2019-02-27T21:44:29.235Z,7.10
2019-02-27T21:47:32.434Z,7.00
2019-02-27T21:50:39.909Z,6.90
2019-02-27T21:53:43.353Z,6.70
2019-02-27T21:56:49.135Z,6.60
2019-02-27T21:59:54.646Z,6.50
2019-02-27T22:03:04.017Z,6.60
2019-02-27T22:06:06.357Z,6.60
2019-02-27T22:09:13.630Z,6.40
2019-02-27T22:12:17.338Z,6.40
2019-02-27T22:15:28.320Z,6.30
2019-02-27T22:18:32.760Z,6.10
2019-02-27T22:21:37.472Z,6.00
2019-02-27T22:24:41.918Z,5.90
2019-02-27T22:27:46.703Z,6.00
2019-02-27T22:30:51.266Z,6.00
2019-02-27T22:33:56.209Z,6.00
2019-02-27T22:37:01.345Z,5.90
2019-02-27T22:40:21.637Z,5.70
2019-02-27T22:43:26.070Z,5.70
2019-02-27T22:46:30.777Z,5.50
2019-02-27T22:49:35.511Z,5.50
2019-02-27T22:52:39.935Z,5.60
2019-02-27T22:55:45.499Z,5.50
2019-02-27T22:58:51.610Z,5.60
2019-02-27T23:01:56.416Z,5.70
2019-02-27T23:05:04.130Z,5.80
2019-02-27T23:08:07.701Z,5.70
2019-02-27T23:11:12.297Z,5.80
2019-02-27T23:14:18.860Z,5.70
2019-02-27T23:17:23.621Z,5.60
2019-02-27T23:20:28.361Z,5.50
2019-02-27T23:23:33.364Z,5.40
2019-02-27T23:26:39.566Z,5.50
2019-02-27T23:29:44.006Z,5.50
2019-02-27T23:32:48.827Z,5.40
2019-02-27T23:35:53.287Z,5.30
2019-02-27T23:38:57.965Z,5.10
2019-02-27T23:42:02.718Z,5.00
2019-02-27T23:45:10.952Z,4.90
2019-02-27T23:48:15.742Z,4.90
2019-02-27T23:51:20.466Z,4.90
2019-02-27T23:54:25.196Z,4.90
2019-02-27T23:57:29.925Z,5.00
